createdAt,value
2023-01-29T00:03:00.080Z,100510.91
2023-01-29T00:07:16.369Z,100509.56
2023-01-29T00:11:32.544Z,100513.81
2023-01-29T00:15:59.057Z,100509.53
2023-01-29T00:20:16.013Z,100511.69
2023-01-29T00:24:32.522Z,100513.09
2023-01-29T00:28:48.916Z,100508.28
2023-01-29T00:33:05.674Z,100509.62
2023-01-29T00:37:21.864Z,100522.59
2023-01-29T00:41:56.752Z,100506.69
2023-01-29T00:46:13.098Z,100516.56
2023-01-29T00:50:29.414Z,100522.31
2023-01-29T00:54:45.614Z,100525.03
2023-01-29T00:59:02.051Z,100519.25
2023-01-29T01:03:18.333Z,100527.56
2023-01-29T01:07:35.015Z,100533.69
2023-01-29T01:11:51.911Z,100538.72
2023-01-29T01:16:27.264Z,100547.25
2023-01-29T01:20:43.865Z,100534.75
2023-01-29T01:25:00.032Z,100539.75
2023-01-29T01:29:16.188Z,100532.22
2023-01-29T01:33:32.369Z,100543.50
2023-01-29T01:37:48.599Z,100535.56
2023-01-29T01:42:06.435Z,100532.66
2023-01-29T01:46:23.603Z,100538.78
2023-01-29T01:50:52.982Z,100533.22
2023-01-29T01:55:10.222Z,100530.88
2023-01-29T01:59:26.547Z,100549.53
2023-01-29T02:04:05.708Z,100550.09
2023-01-29T02:08:54.442Z,100549.59
2023-01-29T02:13:11.592Z,100549.22
2023-01-29T02:17:27.900Z,100542.28
2023-01-29T02:22:13.890Z,100553.81
2023-01-29T02:26:45.074Z,100550.81
2023-01-29T02:31:04.307Z,100555.25
2023-01-29T02:35:32.193Z,100565.25
2023-01-29T02:39:57.172Z,100559.03
2023-01-29T02:44:39.091Z,100561.34
2023-01-29T02:49:32.527Z,100571.03
2023-01-29T02:54:24.566Z,100566.97
2023-01-29T02:58:46.275Z,100570.25
2023-01-29T03:03:10.317Z,100576.37
2023-01-29T03:07:52.256Z,100576.69
2023-01-29T03:12:29.369Z,100568.63
2023-01-29T03:16:52.164Z,100569.78
2023-01-29T03:21:31.632Z,100579.28
2023-01-29T03:26:06.721Z,100579.56
2023-01-29T03:30:44.591Z,100578.03
2023-01-29T03:35:05.432Z,100584.44
2023-01-29T03:39:22.354Z,100591.97
2023-01-29T03:44:16.087Z,100596.19
2023-01-29T03:48:38.031Z,100600.41
2023-01-29T03:53:13.158Z,100598.34
2023-01-29T03:57:59.689Z,100594.53
2023-01-29T04:02:28.279Z,100596.75
2023-01-29T04:06:46.739Z,100593.66
2023-01-29T04:11:08.557Z,100588.34
2023-01-29T04:15:26.519Z,100589.81
2023-01-29T04:19:43.131Z,100583.00
2023-01-29T04:23:59.523Z,100590.09
2023-01-29T04:28:26.898Z,100594.84
2023-01-29T04:33:19.469Z,100595.50
2023-01-29T04:37:55.319Z,100594.75
2023-01-29T04:42:35.488Z,100592.97
2023-01-29T04:47:00.485Z,100591.62
2023-01-29T04:51:57.999Z,100590.34
2023-01-29T04:56:25.938Z,100601.06
2023-01-29T05:00:49.149Z,100586.88
2023-01-29T05:05:07.059Z,100582.13
2023-01-29T05:09:23.712Z,100591.25
2023-01-29T05:13:42.053Z,100588.25
2023-01-29T05:18:03.264Z,100579.19
2023-01-29T05:22:22.915Z,100590.63
2023-01-29T05:26:57.734Z,100591.81
2023-01-29T05:31:14.041Z,100586.56
2023-01-29T05:35:30.731Z,100595.16
2023-01-29T05:39:46.943Z,100596.72
2023-01-29T05:44:03.467Z,100597.53
2023-01-29T05:48:19.676Z,100608.09
2023-01-29T05:52:35.928Z,100611.53
2023-01-29T05:56:52.157Z,100614.59
2023-01-29T06:01:23.100Z,100613.13
2023-01-29T06:05:40.161Z,100616.09
2023-01-29T06:09:56.372Z,100625.47
2023-01-29T06:14:12.546Z,100633.66
2023-01-29T06:18:28.712Z,100628.34
2023-01-29T06:22:45.043Z,100641.16
2023-01-29T06:27:01.146Z,100643.00
2023-01-29T06:31:36.704Z,100638.34
2023-01-29T06:36:00.869Z,100644.94
2023-01-29T06:40:17.355Z,100645.94
2023-01-29T06:44:33.673Z,100648.38
2023-01-29T06:48:49.858Z,100652.78
2023-01-29T06:53:06.014Z,100656.50
2023-01-29T06:57:22.728Z,100656.97
2023-01-29T07:01:44.619Z,100654.56
2023-01-29T07:06:00.918Z,100654.84
2023-01-29T07:10:17.499Z,100649.22
2023-01-29T07:14:33.965Z,100634.13
2023-01-29T07:18:50.160Z,100639.88
2023-01-29T07:23:06.592Z,100638.38
2023-01-29T07:27:22.847Z,100649.72
2023-01-29T07:31:39.056Z,100643.78
2023-01-29T07:35:55.470Z,100627.19
2023-01-29T07:40:12.196Z,100632.00
2023-01-29T07:44:28.371Z,100635.31
2023-01-29T07:48:44.575Z,100653.91
2023-01-29T07:53:01.127Z,100645.44
2023-01-29T07:57:17.356Z,100645.28
2023-01-29T08:01:33.548Z,100655.13
2023-01-29T08:05:50.163Z,100650.84
2023-01-29T08:10:06.636Z,100649.72
2023-01-29T08:14:23.187Z,100660.87
2023-01-29T08:18:44.246Z,100655.56
2023-01-29T08:23:10.421Z,100654.28
2023-01-29T08:27:26.598Z,100654.28
2023-01-29T08:31:42.897Z,100661.50
2023-01-29T08:35:59.019Z,100671.00
2023-01-29T08:40:15.630Z,100674.13
2023-01-29T08:44:32.090Z,100681.47
2023-01-29T08:48:48.218Z,100679.12
2023-01-29T08:53:08.079Z,100674.28
2023-01-29T08:57:24.302Z,100682.44
2023-01-29T09:01:40.547Z,100691.37
2023-01-29T09:05:56.728Z,100694.56
2023-01-29T09:10:13.623Z,100690.69
2023-01-29T09:14:29.772Z,100694.84
2023-01-29T09:18:46.006Z,100691.47
2023-01-29T09:23:10.412Z,100695.47
2023-01-29T09:27:26.627Z,100696.41
2023-01-29T09:31:42.892Z,100705.91
2023-01-29T09:35:59.543Z,100705.44
2023-01-29T09:40:27.084Z,100713.25
2023-01-29T09:45:01.465Z,100702.31
2023-01-29T09:49:23.985Z,100712.91
2023-01-29T09:54:12.101Z,100716.25
2023-01-29T09:58:42.654Z,100715.44
2023-01-29T10:03:30.148Z,100722.69
2023-01-29T10:08:07.000Z,100716.44
2023-01-29T10:12:43.733Z,100715.00
2023-01-29T10:17:22.004Z,100716.47
2023-01-29T10:21:59.519Z,100723.91
2023-01-29T10:26:15.709Z,100719.63
2023-01-29T10:30:45.164Z,100722.44
2023-01-29T10:35:28.428Z,100713.09
2023-01-29T10:39:44.612Z,100710.53
2023-01-29T10:44:14.288Z,100705.47
2023-01-29T10:48:35.389Z,100701.28
2023-01-29T10:53:10.321Z,100690.84
2023-01-29T10:57:56.929Z,100695.66
2023-01-29T11:02:24.068Z,100686.03
2023-01-29T11:06:40.280Z,100679.88
2023-01-29T11:10:59.288Z,100662.16
2023-01-29T11:15:18.448Z,100665.16
2023-01-29T11:19:43.195Z,100658.63
2023-01-29T11:24:15.544Z,100651.69
2023-01-29T11:28:42.292Z,100638.72
2023-01-29T11:33:21.990Z,100621.34
2023-01-29T11:37:40.132Z,100607.09
2023-01-29T11:42:01.848Z,100602.53
2023-01-29T11:46:18.010Z,100599.37
2023-01-29T11:50:34.608Z,100594.47
2023-01-29T11:55:16.504Z,100590.16
2023-01-29T11:59:50.152Z,100591.88
2023-01-29T12:04:18.832Z,100596.50
2023-01-29T12:08:39.673Z,100591.50
2023-01-29T12:13:05.944Z,100596.16
2023-01-29T12:17:25.786Z,100588.00
2023-01-29T12:22:03.739Z,100595.00
2023-01-29T12:26:46.408Z,100601.19
2023-01-29T12:31:39.530Z,100614.28
2023-01-29T12:36:12.417Z,100599.31
2023-01-29T12:40:33.534Z,100591.12
2023-01-29T12:44:57.661Z,100581.22
2023-01-29T12:49:27.529Z,100561.59
2023-01-29T12:54:07.580Z,100547.28
2023-01-29T12:58:30.247Z,100542.00
2023-01-29T13:03:00.004Z,100535.87
2023-01-29T13:07:19.738Z,100532.06
2023-01-29T13:11:58.745Z,100530.25
2023-01-29T13:16:16.033Z,100519.00
2023-01-29T13:20:34.189Z,100525.59
2023-01-29T13:25:03.720Z,100531.19
2023-01-29T13:29:27.924Z,100524.59
2023-01-29T13:33:52.245Z,100517.97
2023-01-29T13:38:26.095Z,100513.78
2023-01-29T13:42:48.049Z,100517.91
2023-01-29T13:47:07.907Z,100516.97
2023-01-29T13:51:34.502Z,100510.06
2023-01-29T13:55:50.831Z,100524.87
2023-01-29T14:00:33.120Z,100528.66
2023-01-29T14:04:49.385Z,100533.16
2023-01-29T14:09:25.438Z,100530.72
2023-01-29T14:13:42.696Z,100528.75
2023-01-29T14:18:13.462Z,100531.91
2023-01-29T14:22:32.088Z,100518.75
2023-01-29T14:26:54.455Z,100523.09
2023-01-29T14:31:11.435Z,100498.28
2023-01-29T14:35:30.778Z,100529.63
2023-01-29T14:39:52.653Z,100523.09
2023-01-29T14:44:48.518Z,100530.06
2023-01-29T14:49:07.925Z,100540.91
2023-01-29T14:53:29.924Z,100532.25
2023-01-29T14:57:46.273Z,100519.13
2023-01-29T15:02:24.298Z,100508.63
2023-01-29T15:06:47.789Z,100520.88
2023-01-29T15:11:27.040Z,100509.28
2023-01-29T15:15:56.593Z,100521.63
2023-01-29T15:20:48.780Z,100514.94
2023-01-29T15:25:07.922Z,100514.16
2023-01-29T15:29:28.185Z,100520.62
2023-01-29T15:33:47.367Z,100513.53
2023-01-29T15:38:05.858Z,100507.66
2023-01-29T15:42:25.872Z,100514.81
2023-01-29T15:46:44.195Z,100512.31
2023-01-29T15:51:05.551Z,100518.69
2023-01-29T15:55:23.932Z,100525.41
2023-01-29T15:59:44.370Z,100531.31
2023-01-29T16:04:02.681Z,100534.84
2023-01-29T16:08:20.749Z,100540.66
2023-01-29T16:12:37.847Z,100534.66
2023-01-29T16:16:54.065Z,100539.09
2023-01-29T16:21:29.458Z,100548.59
2023-01-29T16:25:45.923Z,100548.63
2023-01-29T16:30:03.162Z,100554.94
2023-01-29T16:34:19.644Z,100562.37
2023-01-29T16:38:36.411Z,100568.69
2023-01-29T16:43:14.095Z,100567.41
2023-01-29T16:47:43.397Z,100569.69
2023-01-29T16:52:26.469Z,100566.16
2023-01-29T16:56:48.079Z,100562.25
2023-01-29T17:01:11.638Z,100559.72
2023-01-29T17:05:30.489Z,100566.50
2023-01-29T17:09:48.999Z,100562.28
2023-01-29T17:14:07.272Z,100554.00
2023-01-29T17:18:26.187Z,100553.06
2023-01-29T17:22:42.834Z,100543.84
2023-01-29T17:27:00.717Z,100551.75
2023-01-29T17:31:17.054Z,100543.97
2023-01-29T17:35:33.344Z,100561.22
2023-01-29T17:39:50.793Z,100545.75
2023-01-29T17:44:07.024Z,100538.22
2023-01-29T17:48:27.977Z,100532.66
2023-01-29T17:52:44.098Z,100531.97
2023-01-29T17:57:00.256Z,100534.69
2023-01-29T18:01:16.901Z,100539.47
2023-01-29T18:05:33.566Z,100530.12
2023-01-29T18:09:49.718Z,100526.91
2023-01-29T18:14:13.521Z,100521.59
2023-01-29T18:18:30.722Z,100517.69
2023-01-29T18:22:47.382Z,100518.44
2023-01-29T18:27:03.513Z,100506.44
2023-01-29T18:31:19.691Z,100506.84
2023-01-29T18:35:35.926Z,100502.53
2023-01-29T18:39:53.263Z,100505.44
2023-01-29T18:44:10.997Z,100513.38
2023-01-29T18:48:27.238Z,100511.06
2023-01-29T18:52:45.145Z,100522.91
2023-01-29T18:57:13.371Z,100513.31
2023-01-29T19:01:32.594Z,100520.78
2023-01-29T19:05:48.793Z,100517.09
2023-01-29T19:10:07.042Z,100510.59
2023-01-29T19:14:23.218Z,100522.88
2023-01-29T19:18:39.644Z,100515.06
2023-01-29T19:22:55.785Z,100497.38
2023-01-29T19:27:12.606Z,100503.78
2023-01-29T19:31:29.017Z,100501.78
2023-01-29T19:35:45.743Z,100499.84
2023-01-29T19:40:01.933Z,100492.72
2023-01-29T19:44:18.277Z,100491.91
2023-01-29T19:48:34.518Z,100494.56
2023-01-29T19:52:52.578Z,100507.84
2023-01-29T19:57:09.183Z,100506.16
2023-01-29T20:01:26.096Z,100502.06
2023-01-29T20:05:42.176Z,100495.72
2023-01-29T20:09:58.386Z,100507.16
2023-01-29T20:14:14.628Z,100494.59
2023-01-29T20:18:31.334Z,100488.00
2023-01-29T20:22:47.488Z,100477.94
2023-01-29T20:27:03.866Z,100475.75
2023-01-29T20:31:20.148Z,100469.97
2023-01-29T20:35:37.432Z,100457.28
2023-01-29T20:39:53.568Z,100463.31
2023-01-29T20:44:09.874Z,100467.81
2023-01-29T20:48:26.345Z,100470.97
2023-01-29T20:52:46.828Z,100471.72
2023-01-29T20:57:03.163Z,100479.03
2023-01-29T21:01:21.010Z,100482.31
2023-01-29T21:05:37.120Z,100492.56
2023-01-29T21:09:53.271Z,100501.84
2023-01-29T21:14:10.091Z,100506.22
2023-01-29T21:18:26.540Z,100494.28
2023-01-29T21:22:44.137Z,100496.69
2023-01-29T21:27:01.659Z,100479.59
2023-01-29T21:31:17.885Z,100489.50
2023-01-29T21:35:37.146Z,100487.22
2023-01-29T21:39:54.087Z,100492.75
2023-01-29T21:44:10.846Z,100486.75
2023-01-29T21:48:30.833Z,100490.16
2023-01-29T21:52:47.596Z,100489.00
2023-01-29T21:57:08.505Z,100482.47
2023-01-29T22:01:38.043Z,100476.75
2023-01-29T22:05:54.767Z,100480.91
2023-01-29T22:10:12.321Z,100470.06
2023-01-29T22:14:28.824Z,100453.91
2023-01-29T22:18:44.930Z,100472.56
2023-01-29T22:23:01.060Z,100461.00
2023-01-29T22:27:17.501Z,100452.25
2023-01-29T22:31:33.845Z,100444.59
2023-01-29T22:35:54.910Z,100438.16
2023-01-29T22:40:11.667Z,100438.53
2023-01-29T22:44:27.821Z,100432.75
2023-01-29T22:48:44.040Z,100420.69
2023-01-29T22:53:00.381Z,100414.56
2023-01-29T22:57:16.685Z,100406.81
2023-01-29T23:01:33.177Z,100401.91
2023-01-29T23:05:49.289Z,100407.03
2023-01-29T23:10:07.136Z,100398.41
2023-01-29T23:14:23.458Z,100385.06
2023-01-29T23:18:39.852Z,100384.34
2023-01-29T23:22:56.188Z,100371.81
2023-01-29T23:27:15.052Z,100368.34
2023-01-29T23:31:32.206Z,100361.69
2023-01-29T23:35:48.516Z,100358.44
2023-01-29T23:40:05.006Z,100356.13
2023-01-29T23:44:21.254Z,100353.62
2023-01-29T23:48:37.426Z,100349.88
2023-01-29T23:52:53.661Z,100350.03
2023-01-29T23:57:09.840Z,100339.16
